KOLS/OLS METAR and TAF weather

Enter ICAO airport designator
Station Type Date Time Source
KOLS METAR 2018/12/12 07:54 UTC NOAA

KOLS 120754Z AUTO 02004KT 10SM CLR 08/03 A3007 RMK AO2 SLP147 T00780028


Station Type Date Time Source
KOLS Decoded METAR 2018/12/12 07:54 UTC NOAA

NOGALES INTERNATIONAL AIRPORT , AZ, United States (KOLS) 31-25N 110-51W 1184M
Dec 12, 2018 - 02:54 AM EST / 2018.12.12 0754 UTC
Wind: from the NNE (020 degrees) at 5 MPH (4 KT):0
Visibility: 10 mile(s):0
Sky conditions: clear
Temperature: 46.0 F (7.8 C)
Dew Point: 37.0 F (2.8 C)
Relative Humidity: 70%
Pressure (altimeter): 30.07 in. Hg (1018 hPa)
ob: KOLS 120754Z AUTO 02004KT 10SM CLR 08/03 A3007 RMK AO2 SLP147 T00780028
cycle: 8

Station Type Date Time Source
KOLS TAF 2018/12/12 06:42 UTC NOAA

TAF KOLS 120539Z 1206/1306 VRB03KT P6SM BKN140
FM122000 27008KT P6SM FEW150


Example: see airport list